Time;durP1;ratioP1;P1;durP2;ratioP2;P2;SDS_P1;SDS_P2;PMS_P1;PMS_P2;Temp;Humidity;BMP_temperature;BMP_pressure;BME280_temperature;BME280_humidity;BME280_pressure;Samples;Min_cycle;Max_cycle;Signal;HPM_P1;HPM_P2
2022/07/23 00:36:41;;;;;;;;;;;13.80;98.90;;;;;;5087499;28;19931;-68
2022/07/23 00:39:08;;;;;;;;;;;13.80;98.90;;;;;;5086804;28;20286;-67
2022/07/23 00:41:34;;;;;;;;;;;13.80;98.90;;;;;;5084659;28;20340;-66
2022/07/23 00:44:16;;;;;;;;;;;13.80;98.90;;;;;;5085182;28;19923;-64
2022/07/23 00:46:52;;;;;;;;;;;13.80;98.90;;;;;;5069589;28;19923;-66
2022/07/23 00:49:20;;;;;;;;;;;13.80;98.90;;;;;;5084941;28;20751;-65
2022/07/23 00:51:46;;;;;;;;;;;13.70;98.90;;;;;;5085607;28;19920;-66
2022/07/23 00:54:13;;;;;;;;;;;13.70;98.90;;;;;;5087766;28;20282;-65
2022/07/23 00:56:40;;;;;;;;;;;13.70;98.90;;;;;;5086296;28;20253;-72
2022/07/23 00:59:06;;;;;;;;;;;13.70;98.90;;;;;;5068354;28;19923;-67
2022/07/23 01:01:33;;;;;;;;;;;13.60;98.80;;;;;;5085653;28;20057;-67
2022/07/23 01:03:59;;;;;;;;;;;13.70;98.90;;;;;;5073206;28;19912;-69
2022/07/23 01:06:26;;;;;;;;;;;13.70;98.90;;;;;;5102680;28;19911;-67
2022/07/23 01:08:53;;;;;;;;;;;13.70;98.90;;;;;;5092574;28;19919;-67
2022/07/23 01:11:20;;;;;;;;;;;13.70;99.00;;;;;;5071682;28;19920;-67
2022/07/23 01:13:46;;;;;;;;;;;13.70;99.00;;;;;;5073665;28;19986;-67
2022/07/23 01:16:13;;;;;;;;;;;13.80;99.00;;;;;;5071646;28;19920;-67
2022/07/23 01:18:39;;;;;;;;;;;13.80;99.00;;;;;;5091166;28;20027;-66
2022/07/23 01:21:06;;;;;;;;;;;13.80;99.00;;;;;;5089642;28;19965;-67
2022/07/23 01:23:33;;;;;;;;;;;13.80;99.00;;;;;;5090063;28;19916;-66
2022/07/23 01:25:59;;;;;;;;;;;13.80;99.00;;;;;;5090548;28;20344;-71
2022/07/23 01:28:26;;;;;;;;;;;13.80;99.00;;;;;;5088657;28;19912;-69
2022/07/23 01:30:52;;;;;;;;;;;13.90;99.00;;;;;;5068928;28;19916;-67
2022/07/23 01:33:19;;;;;;;;;;;13.90;99.00;;;;;;5086306;28;20289;-67
2022/07/23 01:35:45;;;;;;;;;;;14.00;99.10;;;;;;5084324;28;19975;-67
2022/07/23 01:38:12;;;;;;;;;;;14.00;99.10;;;;;;5077785;28;20046;-68
2022/07/23 01:40:38;;;;;;;;;;;14.00;99.10;;;;;;5059068;28;19920;-70
2022/07/23 01:43:05;;;;;;;;;;;14.10;99.10;;;;;;5062764;28;19913;-69
2022/07/23 01:45:32;;;;;;;;;;;14.10;99.10;;;;;;5060891;28;19927;-67
2022/07/23 01:47:58;;;;;;;;;;;14.20;99.10;;;;;;5046456;28;20290;-67
2022/07/23 01:50:25;;;;;;;;;;;14.20;99.10;;;;;;5065050;28;20382;-67
2022/07/23 01:52:51;;;;;;;;;;;14.20;99.10;;;;;;5066386;28;20382;-67
2022/07/23 01:55:18;;;;;;;;;;;14.20;99.10;;;;;;5064535;28;19931;-69
2022/07/23 01:57:44;;;;;;;;;;;14.30;99.10;;;;;;5060253;28;19916;-68
2022/07/23 02:00:11;;;;;;;;;;;14.30;99.20;;;;;;5065569;28;19920;-66
2022/07/23 02:02:37;;;;;;;;;;;14.30;99.10;;;;;;5055608;28;20374;-69
2022/07/23 02:05:04;;;;;;;;;;;14.30;99.10;;;;;;5065419;28;19999;-66
2022/07/23 02:07:31;;;;;;;;;;;14.30;99.10;;;;;;5065482;28;19912;-67
2022/07/23 02:09:58;;;;;;;;;;;14.30;99.10;;;;;;5063378;28;19916;-65
2022/07/23 02:12:24;;;;;;;;;;;14.30;99.10;;;;;;5064130;28;19912;-66
2022/07/23 02:14:51;;;;;;;;;;;14.40;99.10;;;;;;5065864;28;20693;-67
2022/07/23 02:17:17;;;;;;;;;;;14.40;99.10;;;;;;5060346;28;19916;-67
2022/07/23 02:19:44;;;;;;;;;;;14.50;99.10;;;;;;5066862;28;20374;-68
2022/07/23 02:22:10;;;;;;;;;;;14.60;99.20;;;;;;5067278;28;19961;-67
2022/07/23 02:24:37;;;;;;;;;;;14.60;99.20;;;;;;5059698;28;19925;-67
2022/07/23 02:27:03;;;;;;;;;;;14.60;99.10;;;;;;5064805;28;20202;-69
2022/07/23 02:29:30;;;;;;;;;;;14.70;99.20;;;;;;5065898;28;19916;-67
2022/07/23 02:31:56;;;;;;;;;;;14.70;99.20;;;;;;5043069;28;20031;-65
2022/07/23 02:34:23;;;;;;;;;;;14.70;99.20;;;;;;5061938;28;19913;-65
2022/07/23 02:36:50;;;;;;;;;;;14.70;99.20;;;;;;5059729;28;20308;-67
2022/07/23 02:39:16;;;;;;;;;;;14.60;99.10;;;;;;5087033;28;20260;-66
2022/07/23 02:41:43;;;;;;;;;;;14.60;99.10;;;;;;5082612;28;20426;-67
2022/07/23 02:44:09;;;;;;;;;;;14.60;99.10;;;;;;5080746;28;19931;-67
2022/07/23 02:46:36;;;;;;;;;;;14.50;99.10;;;;;;5081913;28;20351;-67
2022/07/23 02:49:04;;;;;;;;;;;14.40;99.00;;;;;;5082310;28;19916;-66
2022/07/23 02:51:31;;;;;;;;;;;14.40;99.00;;;;;;5070340;28;19912;-66
2022/07/23 02:53:57;;;;;;;;;;;14.30;99.00;;;;;;5089673;28;20002;-66
2022/07/23 02:56:24;;;;;;;;;;;14.30;99.00;;;;;;5086014;28;20006;-66
2022/07/23 02:58:50;;;;;;;;;;;14.30;99.10;;;;;;5085988;28;19920;-66
2022/07/23 03:01:17;;;;;;;;;;;14.30;99.10;;;;;;5081914;28;20006;-65
2022/07/23 03:03:43;;;;;;;;;;;14.20;99.00;;;;;;5089836;28;20409;-66
2022/07/23 03:06:10;;;;;;;;;;;14.20;99.00;;;;;;5100933;28;19915;-65
2022/07/23 03:08:37;;;;;;;;;;;14.30;99.10;;;;;;5090871;28;19919;-66
2022/07/23 03:11:03;;;;;;;;;;;14.30;99.10;;;;;;5081592;28;19908;-66
2022/07/23 03:13:30;;;;;;;;;;;14.30;99.10;;;;;;5089944;28;19962;-64
2022/07/23 03:15:56;;;;;;;;;;;14.40;99.10;;;;;;5089951;28;20379;-65
2022/07/23 03:18:23;;;;;;;;;;;14.50;99.20;;;;;;5090328;28;20257;-65
2022/07/23 03:20:49;;;;;;;;;;;14.50;99.20;;;;;;5089799;28;19919;-66
2022/07/23 03:23:16;;;;;;;;;;;14.40;99.10;;;;;;5080344;28;20018;-66
2022/07/23 03:25:42;;;;;;;;;;;14.30;99.10;;;;;;5087592;28;19916;-66
2022/07/23 03:28:09;;;;;;;;;;;14.30;99.00;;;;;;5086406;28;20003;-67
2022/07/23 03:30:36;;;;;;;;;;;14.30;99.00;;;;;;5089584;28;19965;-65
2022/07/23 03:33:02;;;;;;;;;;;14.20;99.00;;;;;;5086859;28;19915;-65
2022/07/23 03:35:29;;;;;;;;;;;14.20;98.90;;;;;;5088118;28;19924;-65
2022/07/23 03:37:55;;;;;;;;;;;14.10;98.90;;;;;;5077667;28;19943;-65
2022/07/23 03:40:22;;;;;;;;;;;14.10;98.90;;;;;;5069572;28;20306;-65
2022/07/23 03:42:48;;;;;;;;;;;14.20;98.90;;;;;;5069206;28;19927;-65
2022/07/23 03:45:15;;;;;;;;;;;14.20;98.80;;;;;;5068819;28;19959;-66
2022/07/23 03:47:43;;;;;;;;;;;14.20;98.70;;;;;;5066780;28;19966;-65
2022/07/23 03:50:09;;;;;;;;;;;14.30;98.60;;;;;;5068795;28;19935;-65
2022/07/23 03:52:36;;;;;;;;;;;14.30;98.50;;;;;;5068128;28;19917;-65
2022/07/23 06:17:18;;;;;;;;;;;14.40;97.30;;;;;;5058060;28;19973;-64
2022/07/23 06:19:44;;;;;;;;;;;14.40;97.30;;;;;;5058769;28;20356;-65
2022/07/23 06:22:11;;;;;;;;;;;14.40;97.20;;;;;;5067221;28;19924;-65
2022/07/23 06:24:40;;;;;;;;;;;14.30;97.10;;;;;;5069409;28;20065;-64
2022/07/23 06:27:06;;;;;;;;;;;14.30;97.10;;;;;;5067666;28;19922;-65
2022/07/23 06:29:33;;;;;;;;;;;14.40;97.10;;;;;;5067595;28;19939;-65
2022/07/23 06:32:00;;;;;;;;;;;14.40;97.20;;;;;;5059198;28;19924;-64
2022/07/23 06:34:26;;;;;;;;;;;14.40;97.30;;;;;;5063806;28;19991;-64
2022/07/23 06:36:53;;;;;;;;;;;14.40;97.30;;;;;;5068622;28;19974;-64
2022/07/23 06:39:19;;;;;;;;;;;14.40;97.40;;;;;;5070820;28;19924;-64
2022/07/23 06:41:46;;;;;;;;;;;14.40;97.50;;;;;;5066994;28;19951;-65
2022/07/23 06:44:12;;;;;;;;;;;14.40;97.70;;;;;;5058429;28;19931;-64
2022/07/23 06:46:39;;;;;;;;;;;14.40;97.70;;;;;;5071918;28;20436;-64
2022/07/23 06:49:06;;;;;;;;;;;14.40;97.80;;;;;;5074276;28;19912;-64
2022/07/23 06:51:32;;;;;;;;;;;14.40;97.80;;;;;;5063939;28;20286;-64
2022/07/23 06:53:59;;;;;;;;;;;14.40;97.90;;;;;;5070770;28;19912;-64
2022/07/23 06:56:25;;;;;;;;;;;14.40;97.90;;;;;;5075106;28;19917;-64
2022/07/23 06:58:52;;;;;;;;;;;14.40;98.00;;;;;;5063759;28;19921;-64
2022/07/23 07:01:18;;;;;;;;;;;14.40;98.00;;;;;;5071963;28;19978;-65
2022/07/23 07:03:45;;;;;;;;;;;14.40;98.10;;;;;;5062327;28;19917;-64
2022/07/23 07:06:12;;;;;;;;;;;14.40;98.10;;;;;;5066114;28;19916;-66
2022/07/23 07:08:38;;;;;;;;;;;14.40;98.10;;;;;;5066072;28;19935;-63
2022/07/23 07:11:05;;;;;;;;;;;14.30;98.10;;;;;;5071911;28;19919;-65
2022/07/23 07:13:31;;;;;;;;;;;14.30;98.10;;;;;;5066195;28;19916;-65
2022/07/23 07:15:58;;;;;;;;;;;14.30;98.10;;;;;;5068452;28;19935;-64
2022/07/23 07:18:24;;;;;;;;;;;14.30;98.10;;;;;;5062614;28;20431;-65
2022/07/23 07:20:51;;;;;;;;;;;14.30;98.10;;;;;;5063175;28;19924;-65
2022/07/23 07:23:18;;;;;;;;;;;14.20;98.20;;;;;;5057214;28;20535;-65
2022/07/23 07:25:44;;;;;;;;;;;14.20;98.20;;;;;;5062332;28;20003;-65
2022/07/23 07:28:11;;;;;;;;;;;14.20;98.20;;;;;;5065023;28;19923;-64
2022/07/23 07:30:37;;;;;;;;;;;14.20;98.20;;;;;;5061956;28;19967;-64
2022/07/23 07:33:04;;;;;;;;;;;14.20;98.20;;;;;;5059943;28;19917;-66
2022/07/23 07:35:32;;;;;;;;;;;14.20;98.20;;;;;;5065818;28;19925;-63
2022/07/23 07:37:59;;;;;;;;;;;14.10;98.20;;;;;;5068314;28;19917;-64
2022/07/23 07:40:26;;;;;;;;;;;14.10;98.20;;;;;;5063180;28;20294;-64
2022/07/23 07:42:53;;;;;;;;;;;14.10;98.20;;;;;;5060561;28;19916;-64
2022/07/23 07:45:23;;;;;;;;;;;14.10;98.20;;;;;;5063020;28;19951;-64
2022/07/23 07:47:49;;;;;;;;;;;14.00;98.20;;;;;;5063929;28;19936;-64
2022/07/23 07:50:16;;;;;;;;;;;14.00;98.20;;;;;;5059112;28;19916;-64
2022/07/23 07:52:43;;;;;;;;;;;14.00;98.20;;;;;;5066463;28;20017;-64
2022/07/23 07:55:09;;;;;;;;;;;14.00;98.20;;;;;;5059228;28;20434;-64
2022/07/23 07:57:36;;;;;;;;;;;14.00;98.20;;;;;;5070510;28;19924;-64
2022/07/23 08:00:06;;;;;;;;;;;14.00;98.30;;;;;;5070036;28;19916;-64
2022/07/23 08:02:49;;;;;;;;;;;14.00;98.30;;;;;;5061477;28;19920;-64
2022/07/23 08:05:19;;;;;;;;;;;13.90;98.30;;;;;;5043981;28;20004;-64
2022/07/23 08:07:45;;;;;;;;;;;14.00;98.20;;;;;;5065860;28;19915;-64
2022/07/23 08:10:12;;;;;;;;;;;13.90;98.20;;;;;;5074978;28;19956;-64
2022/07/23 08:12:42;;;;;;;;;;;13.90;98.30;;;;;;5071839;28;20028;-64
2022/07/23 08:15:09;;;;;;;;;;;13.90;98.30;;;;;;5067550;28;19924;-63
2022/07/23 08:17:36;;;;;;;;;;;13.90;98.30;;;;;;5068764;28;19920;-64
2022/07/23 08:20:03;;;;;;;;;;;13.90;98.30;;;;;;5071192;28;19943;-63
2022/07/23 08:22:49;;;;;;;;;;;13.90;98.30;;;;;;5079967;28;19913;-63
2022/07/23 08:25:16;;;;;;;;;;;13.80;98.20;;;;;;5070438;28;20274;-64
2022/07/23 08:27:42;;;;;;;;;;;13.80;98.20;;;;;;5080056;28;19916;-64
2022/07/23 08:30:09;;;;;;;;;;;13.80;98.20;;;;;;5084940;28;19953;-64
2022/07/23 08:32:51;;;;;;;;;;;13.70;98.10;;;;;;5079587;28;20007;-65
2022/07/23 08:35:18;;;;;;;;;;;13.70;98.10;;;;;;5084807;28;20022;-64
2022/07/23 08:37:45;;;;;;;;;;;13.70;98.10;;;;;;5092697;28;19966;-65
2022/07/23 08:40:11;;;;;;;;;;;13.70;98.20;;;;;;5092585;28;19919;-64
2022/07/23 08:42:38;;;;;;;;;;;13.70;98.10;;;;;;5092357;28;19912;-66
2022/07/23 08:45:05;;;;;;;;;;;13.70;98.20;;;;;;5079071;28;20333;-65
2022/07/23 08:47:31;;;;;;;;;;;13.70;98.20;;;;;;5071103;28;19912;-65
2022/07/23 08:49:58;;;;;;;;;;;13.70;98.30;;;;;;5092814;28;19908;-67
2022/07/23 08:52:25;;;;;;;;;;;13.70;98.20;;;;;;5074965;28;19912;-67
2022/07/23 08:54:52;;;;;;;;;;;13.70;98.20;;;;;;5092413;28;19915;-67
2022/07/23 08:57:19;;;;;;;;;;;13.70;98.20;;;;;;5047085;28;19916;-67
2022/07/23 08:59:45;;;;;;;;;;;13.70;98.10;;;;;;5084069;28;20026;-66
2022/07/23 09:02:12;;;;;;;;;;;13.60;98.10;;;;;;5074283;28;20435;-67
2022/07/23 09:04:39;;;;;;;;;;;13.60;98.10;;;;;;5067115;28;19916;-67
2022/07/23 09:07:05;;;;;;;;;;;13.60;98.10;;;;;;5069957;28;19938;-66
2022/07/23 09:09:33;;;;;;;;;;;13.50;98.10;;;;;;5038026;28;20299;-66
2022/07/23 09:12:06;;;;;;;;;;;13.60;98.10;;;;;;5072492;28;19928;-67
2022/07/23 09:14:59;;;;;;;;;;;13.50;98.10;;;;;;5061503;28;19962;-66
2022/07/23 09:17:25;;;;;;;;;;;13.50;98.20;;;;;;5057019;28;19921;-66
2022/07/23 09:19:52;;;;;;;;;;;13.60;98.20;;;;;;5062295;28;19978;-66
2022/07/23 09:22:22;;;;;;;;;;;13.50;98.20;;;;;;5064207;28;20511;-66
2022/07/23 09:25:07;;;;;;;;;;;13.50;98.20;;;;;;5064801;28;19913;-66
2022/07/23 09:27:52;;;;;;;;;;;13.50;98.10;;;;;;5067382;28;19920;-66
2022/07/23 09:30:20;;;;;;;;;;;13.50;98.20;;;;;;5065036;28;19956;-67
2022/07/23 09:33:03;;;;;;;;;;;13.50;98.10;;;;;;5068545;28;19917;-66
2022/07/23 09:46:48;;;;;;;;;;;13.50;98.10;;;;;;5087081;27;20374;-64
2022/07/23 09:49:22;;;;;;;;;;;13.40;98.10;;;;;;5132426;27;19938;-65
2022/07/23 09:51:48;;;;;;;;;;;13.40;98.10;;;;;;5106700;27;19916;-63
2022/07/23 09:54:22;;;;;;;;;;;13.40;98.10;;;;;;5120916;27;19912;-65
2022/07/23 09:56:49;;;;;;;;;;;13.40;98.10;;;;;;5098086;28;19919;-67
2022/07/23 09:59:17;;;;;;;;;;;13.40;98.10;;;;;;5100445;28;19916;-67
2022/07/23 10:01:44;;;;;;;;;;;13.40;98.10;;;;;;5107579;27;20413;-65
2022/07/23 10:04:11;;;;;;;;;;;13.30;98.00;;;;;;5108435;27;19974;-66
2022/07/23 10:06:39;;;;;;;;;;;13.30;98.00;;;;;;5123115;27;19911;-65
2022/07/23 10:09:06;;;;;;;;;;;13.30;98.00;;;;;;5111880;27;19908;-67
2022/07/23 10:11:32;;;;;;;;;;;13.30;97.90;;;;;;5111167;27;19912;-65
2022/07/23 10:14:00;;;;;;;;;;;13.30;97.90;;;;;;5125860;27;20297;-64
2022/07/23 10:16:27;;;;;;;;;;;13.20;97.90;;;;;;5129137;27;20363;-64
2022/07/23 10:18:53;;;;;;;;;;;13.20;97.90;;;;;;5105634;28;20355;-65
2022/07/23 10:21:36;;;;;;;;;;;13.20;97.90;;;;;;5122092;27;19931;-65
2022/07/23 10:24:15;;;;;;;;;;;13.20;97.90;;;;;;5086042;28;19911;-64
2022/07/23 10:26:44;;;;;;;;;;;13.20;97.90;;;;;;5115503;27;19916;-64
2022/07/23 10:29:29;;;;;;;;;;;13.20;98.00;;;;;;5115527;27;19947;-65
2022/07/23 10:32:14;;;;;;;;;;;13.20;97.90;;;;;;5101409;27;19918;-65
2022/07/23 10:34:58;;;;;;;;;;;13.10;97.80;;;;;;5112423;27;20317;-65
2022/07/23 10:37:29;;;;;;;;;;;13.10;97.80;;;;;;5109051;27;19951;-67
2022/07/23 10:40:14;;;;;;;;;;;13.00;97.80;;;;;;5092079;28;19964;-66
2022/07/23 10:42:41;;;;;;;;;;;13.00;97.80;;;;;;5112955;27;19992;-65
2022/07/23 10:45:27;;;;;;;;;;;13.00;97.80;;;;;;5118391;27;20357;-66
2022/07/23 10:47:54;;;;;;;;;;;13.00;97.90;;;;;;5108596;27;20326;-65
2022/07/23 10:50:21;;;;;;;;;;;13.00;97.80;;;;;;5110557;27;19919;-65
2022/07/23 10:53:03;;;;;;;;;;;12.90;97.80;;;;;;5102896;27;19961;-65
2022/07/23 10:55:30;;;;;;;;;;;12.90;97.70;;;;;;5100552;27;19934;-65
2022/07/23 10:57:56;;;;;;;;;;;12.80;97.70;;;;;;5103177;27;20015;-65
2022/07/23 11:00:23;;;;;;;;;;;12.90;97.70;;;;;;5114456;27;20009;-65
2022/07/23 11:02:53;;;;;;;;;;;12.90;97.80;;;;;;5118942;27;19951;-66
2022/07/23 11:05:21;;;;;;;;;;;12.90;97.80;;;;;;5093170;27;19919;-65
2022/07/23 11:08:03;;;;;;;;;;;12.90;97.80;;;;;;5084257;28;20405;-65
2022/07/23 11:10:34;;;;;;;;;;;12.90;97.80;;;;;;5115416;27;19923;-63
2022/07/23 11:13:19;;;;;;;;;;;12.90;97.70;;;;;;5112825;27;19919;-68
2022/07/23 11:16:08;;;;;;;;;;;12.80;97.60;;;;;;5113478;27;19915;-69
2022/07/23 11:18:40;;;;;;;;;;;12.90;97.70;;;;;;5113006;27;19959;-68
2022/07/23 11:21:31;;;;;;;;;;;12.80;97.70;;;;;;5115534;27;19916;-68
2022/07/23 11:23:58;;;;;;;;;;;12.80;97.60;;;;;;5115607;27;20420;-67
2022/07/23 11:26:44;;;;;;;;;;;12.80;97.60;;;;;;5113772;27;19912;-67
2022/07/23 11:29:30;;;;;;;;;;;12.90;97.70;;;;;;5108924;27;19981;-66
2022/07/23 11:31:58;;;;;;;;;;;12.80;97.70;;;;;;5105002;27;19970;-64
2022/07/23 11:34:34;;;;;;;;;;;12.90;97.70;;;;;;5095660;27;20048;-66
2022/07/23 11:37:00;;;;;;;;;;;12.90;97.70;;;;;;5124018;27;20021;-66
2022/07/23 11:39:27;;;;;;;;;;;12.90;97.60;;;;;;5107186;27;19961;-67
2022/07/23 11:41:54;;;;;;;;;;;13.00;97.70;;;;;;5109510;27;19971;-67
2022/07/23 11:44:30;;;;;;;;;;;13.00;97.60;;;;;;5116185;27;19912;-67
2022/07/23 11:46:57;;;;;;;;;;;12.90;97.50;;;;;;5101951;27;19927;-67
2022/07/23 11:49:24;;;;;;;;;;;12.90;97.50;;;;;;5101200;27;19916;-66
2022/07/23 11:52:09;;;;;;;;;;;12.90;97.50;;;;;;5104603;28;20297;-67
2022/07/23 11:54:36;;;;;;;;;;;13.00;97.60;;;;;;5108140;28;20411;-67
2022/07/23 11:57:03;;;;;;;;;;;13.00;97.70;;;;;;5090546;28;19923;-67
2022/07/23 11:59:32;;;;;;;;;;;13.10;97.70;;;;;;5109951;28;20415;-66
2022/07/23 12:01:59;;;;;;;;;;;13.10;97.70;;;;;;5102504;28;19912;-67
2022/07/23 12:04:38;;;;;;;;;;;13.10;97.80;;;;;;5106124;28;19954;-67
2022/07/23 12:07:05;;;;;;;;;;;13.10;97.70;;;;;;5102461;28;20362;-68
2022/07/23 12:09:32;;;;;;;;;;;13.00;97.70;;;;;;5083762;28;19919;-68
2022/07/23 12:11:59;;;;;;;;;;;13.00;97.80;;;;;;5072531;28;19912;-68
2022/07/23 12:14:25;;;;;;;;;;;13.10;97.80;;;;;;5102225;28;20548;-68
2022/07/23 12:17:10;;;;;;;;;;;13.00;97.90;;;;;;5109316;28;19919;-68
2022/07/23 12:19:37;;;;;;;;;;;13.00;97.80;;;;;;5105692;28;19920;-65
2022/07/23 12:22:04;;;;;;;;;;;12.90;97.80;;;;;;5104414;28;19918;-65
2022/07/23 12:24:31;;;;;;;;;;;12.90;97.80;;;;;;5089984;28;19924;-65
2022/07/23 12:27:13;;;;;;;;;;;12.80;97.80;;;;;;5111324;28;20000;-66
2022/07/23 12:29:40;;;;;;;;;;;12.80;97.80;;;;;;5102589;28;20266;-66
2022/07/23 12:32:23;;;;;;;;;;;12.80;97.80;;;;;;5109429;28;19912;-66
2022/07/23 12:34:50;;;;;;;;;;;12.80;97.80;;;;;;5098627;28;19915;-66
2022/07/23 12:37:39;;;;;;;;;;;12.70;97.80;;;;;;5100286;28;20392;-66
2022/07/23 12:40:23;;;;;;;;;;;12.70;97.80;;;;;;5099160;28;20503;-66
2022/07/23 12:42:51;;;;;;;;;;;12.70;97.80;;;;;;5107194;28;20340;-66
2022/07/23 12:45:18;;;;;;;;;;;12.70;97.80;;;;;;5108102;28;20433;-66
2022/07/23 12:48:01;;;;;;;;;;;12.70;97.80;;;;;;5101730;28;19926;-66
2022/07/23 12:50:33;;;;;;;;;;;12.60;97.80;;;;;;5088519;28;19920;-66
2022/07/23 12:53:04;;;;;;;;;;;12.60;97.80;;;;;;5109672;28;19916;-66
2022/07/23 12:55:30;;;;;;;;;;;12.60;97.80;;;;;;5114578;27;19955;-66
2022/07/23 12:58:04;;;;;;;;;;;12.60;97.80;;;;;;5114484;27;20337;-66
2022/07/23 13:00:31;;;;;;;;;;;12.60;97.80;;;;;;5107515;27;20339;-66
2022/07/23 13:02:57;;;;;;;;;;;12.50;97.70;;;;;;5113287;27;19911;-66
2022/07/23 13:05:24;;;;;;;;;;;12.50;97.70;;;;;;5113740;27;19919;-68
2022/07/23 13:07:51;;;;;;;;;;;12.50;97.60;;;;;;5112499;27;19916;-66
2022/07/23 13:10:17;;;;;;;;;;;12.50;97.60;;;;;;5111376;27;19927;-67
2022/07/23 13:12:44;;;;;;;;;;;12.50;97.70;;;;;;5112902;27;20006;-67
2022/07/23 13:15:10;;;;;;;;;;;12.50;97.70;;;;;;5109186;27;19946;-68
2022/07/23 13:17:37;;;;;;;;;;;12.50;97.70;;;;;;5104656;27;19946;-68
2022/07/23 13:20:04;;;;;;;;;;;12.50;97.70;;;;;;5115412;27;19912;-67
2022/07/23 13:22:30;;;;;;;;;;;12.50;97.70;;;;;;5115925;27;20367;-67
2022/07/23 13:24:57;;;;;;;;;;;12.50;97.70;;;;;;5114789;27;19915;-66
2022/07/23 13:27:24;;;;;;;;;;;12.50;97.60;;;;;;5121880;27;20433;-67
2022/07/23 13:29:50;;;;;;;;;;;12.40;97.50;;;;;;5113697;28;20378;-67
2022/07/23 13:32:17;;;;;;;;;;;12.40;97.50;;;;;;5110442;28;19928;-67
2022/07/23 13:34:43;;;;;;;;;;;12.40;97.50;;;;;;5104535;28;19947;-67
2022/07/23 13:37:10;;;;;;;;;;;12.50;97.50;;;;;;5109873;27;19930;-66
2022/07/23 13:39:36;;;;;;;;;;;12.40;97.40;;;;;;5115878;27;19955;-67
2022/07/23 13:42:03;;;;;;;;;;;12.40;97.40;;;;;;5116455;27;20491;-67
2022/07/23 13:44:30;;;;;;;;;;;12.50;97.40;;;;;;5132784;27;19914;-66
2022/07/23 13:46:56;;;;;;;;;;;12.40;97.40;;;;;;5107940;27;19924;-66
2022/07/23 13:49:23;;;;;;;;;;;12.40;97.40;;;;;;5106842;27;20450;-67
2022/07/23 13:51:49;;;;;;;;;;;12.50;97.40;;;;;;5106973;27;19920;-67
2022/07/23 13:54:16;;;;;;;;;;;12.40;97.40;;;;;;5129379;27;20372;-67
2022/07/23 13:56:43;;;;;;;;;;;12.50;97.40;;;;;;5111552;27;19998;-67
2022/07/23 13:59:10;;;;;;;;;;;12.50;97.40;;;;;;5116471;27;19938;-67
2022/07/23 14:01:37;;;;;;;;;;;12.50;97.50;;;;;;5106248;28;20427;-67
2022/07/23 14:04:04;;;;;;;;;;;12.50;97.50;;;;;;5105227;28;20288;-67
2022/07/23 14:06:30;;;;;;;;;;;12.50;97.40;;;;;;5088969;27;19919;-67
2022/07/23 14:08:57;;;;;;;;;;;12.50;97.40;;;;;;5109705;27;19916;-66
2022/07/23 14:11:23;;;;;;;;;;;12.50;97.40;;;;;;5105118;28;19934;-67
2022/07/23 14:13:50;;;;;;;;;;;12.40;97.30;;;;;;5086675;28;19941;-67
2022/07/23 14:16:16;;;;;;;;;;;12.40;97.30;;;;;;5107678;27;19927;-66
2022/07/23 14:18:43;;;;;;;;;;;12.40;97.30;;;;;;5107107;27;20064;-66
2022/07/23 14:21:09;;;;;;;;;;;12.40;97.30;;;;;;5109887;27;19927;-66
2022/07/23 14:23:36;;;;;;;;;;;12.40;97.20;;;;;;5105534;27;19912;-67
2022/07/23 14:26:03;;;;;;;;;;;12.40;97.30;;;;;;5104871;28;20317;-67
2022/07/23 14:28:30;;;;;;;;;;;12.30;97.20;;;;;;5107044;27;19912;-66
2022/07/23 14:30:56;;;;;;;;;;;12.20;97.10;;;;;;5109681;27;19950;-66
2022/07/23 14:33:23;;;;;;;;;;;12.20;97.10;;;;;;5105773;28;19912;-66
2022/07/23 14:35:49;;;;;;;;;;;12.20;97.10;;;;;;5109860;27;19926;-66
2022/07/23 14:38:16;;;;;;;;;;;12.20;97.10;;;;;;5102099;28;19908;-67
2022/07/23 14:40:42;;;;;;;;;;;12.20;97.20;;;;;;5106496;27;19916;-66
2022/07/23 14:43:09;;;;;;;;;;;12.20;97.20;;;;;;5106865;28;20005;-67
2022/07/23 14:45:36;;;;;;;;;;;12.20;97.20;;;;;;5105377;27;19912;-66
2022/07/23 14:48:02;;;;;;;;;;;12.20;97.10;;;;;;5110687;27;20015;-66
2022/07/23 14:50:29;;;;;;;;;;;12.20;97.10;;;;;;5092619;28;20314;-66
2022/07/23 14:52:56;;;;;;;;;;;12.20;97.10;;;;;;5093859;28;20281;-67
2022/07/23 14:55:23;;;;;;;;;;;12.20;97.10;;;;;;5102557;27;19916;-66
2022/07/23 14:57:49;;;;;;;;;;;12.20;97.00;;;;;;5105377;27;19916;-66
2022/07/23 15:00:16;;;;;;;;;;;12.20;97.10;;;;;;5106119;28;19923;-67
2022/07/23 15:02:43;;;;;;;;;;;12.20;97.10;;;;;;5104893;27;19964;-66
2022/07/23 15:05:10;;;;;;;;;;;12.20;97.00;;;;;;5106219;28;19919;-67
2022/07/23 15:07:36;;;;;;;;;;;12.20;97.00;;;;;;5104418;28;19919;-67
2022/07/23 15:10:03;;;;;;;;;;;12.10;97.00;;;;;;5106330;28;19928;-67
2022/07/23 15:12:30;;;;;;;;;;;12.20;97.10;;;;;;5104976;28;20274;-67
2022/07/23 15:14:56;;;;;;;;;;;12.20;97.10;;;;;;5104377;28;19912;-67
2022/07/23 15:17:23;;;;;;;;;;;12.20;97.10;;;;;;5104809;28;19920;-67
2022/07/23 15:19:50;;;;;;;;;;;12.10;97.10;;;;;;5101759;28;19912;-67
2022/07/23 15:22:17;;;;;;;;;;;12.10;97.10;;;;;;5103744;28;20301;-67
2022/07/23 15:24:44;;;;;;;;;;;12.10;97.00;;;;;;5087034;28;19971;-67
2022/07/23 15:27:10;;;;;;;;;;;12.10;97.00;;;;;;5105512;28;19918;-66
2022/07/23 15:29:37;;;;;;;;;;;12.00;96.90;;;;;;5103700;28;19916;-66
2022/07/23 15:32:03;;;;;;;;;;;12.00;96.90;;;;;;5107068;28;19957;-66
2022/07/23 15:34:30;;;;;;;;;;;12.10;97.00;;;;;;5106451;28;20459;-66
2022/07/23 15:36:59;;;;;;;;;;;12.00;96.90;;;;;;5095906;28;20413;-65
2022/07/23 15:39:26;;;;;;;;;;;12.00;96.90;;;;;;5108056;27;19916;-67
2022/07/23 15:41:53;;;;;;;;;;;12.00;96.90;;;;;;5108521;27;19959;-66
2022/07/23 15:44:19;;;;;;;;;;;12.00;96.90;;;;;;5103666;27;19913;-66
2022/07/23 15:46:46;;;;;;;;;;;12.00;96.90;;;;;;5092762;28;19974;-66
2022/07/23 15:49:13;;;;;;;;;;;11.90;96.90;;;;;;5099378;28;21116;-66
2022/07/23 15:51:40;;;;;;;;;;;11.90;96.70;;;;;;5115138;28;19907;-66
2022/07/23 15:54:06;;;;;;;;;;;11.80;96.80;;;;;;5133485;27;19915;-66
2022/07/23 15:56:33;;;;;;;;;;;11.90;96.80;;;;;;5117536;27;19978;-66
2022/07/23 15:59:00;;;;;;;;;;;11.90;96.80;;;;;;5104478;28;19911;-66
2022/07/23 16:01:29;;;;;;;;;;;11.90;96.90;;;;;;5129764;27;19908;-66
2022/07/23 16:03:58;;;;;;;;;;;11.90;96.80;;;;;;5132893;27;19924;-66
2022/07/23 16:06:25;;;;;;;;;;;11.90;96.80;;;;;;5122637;27;19912;-66
2022/07/23 16:08:52;;;;;;;;;;;11.80;96.80;;;;;;5120891;28;19908;-66
2022/07/23 16:11:18;;;;;;;;;;;11.80;96.70;;;;;;5110919;28;19925;-66
2022/07/23 16:13:45;;;;;;;;;;;11.80;96.80;;;;;;5132944;28;19907;-66
2022/07/23 16:16:11;;;;;;;;;;;11.70;96.70;;;;;;5117782;28;20341;-67
2022/07/23 16:18:38;;;;;;;;;;;11.70;96.70;;;;;;5113495;28;19919;-66
2022/07/23 16:21:05;;;;;;;;;;;11.70;96.70;;;;;;5121153;28;19907;-66
2022/07/23 16:23:32;;;;;;;;;;;11.70;96.70;;;;;;5110112;28;19919;-66
2022/07/23 16:25:59;;;;;;;;;;;11.70;96.70;;;;;;5124438;28;19911;-66
2022/07/23 16:28:26;;;;;;;;;;;11.70;96.80;;;;;;5111961;28;19912;-67
2022/07/23 16:30:52;;;;;;;;;;;11.70;96.70;;;;;;5122005;27;20286;-67
2022/07/23 16:33:19;;;;;;;;;;;11.70;96.70;;;;;;5094850;28;19912;-66
2022/07/23 16:35:46;;;;;;;;;;;11.70;96.70;;;;;;5111793;27;19926;-67
2022/07/23 16:38:12;;;;;;;;;;;11.70;96.70;;;;;;5128526;27;19911;-67
2022/07/23 16:40:39;;;;;;;;;;;11.70;96.60;;;;;;5118627;27;19920;-67
2022/07/23 16:43:06;;;;;;;;;;;11.70;96.60;;;;;;5106861;27;19907;-67
2022/07/23 16:45:32;;;;;;;;;;;11.70;96.70;;;;;;5107515;28;19955;-67
2022/07/23 16:47:59;;;;;;;;;;;11.70;96.70;;;;;;5090685;28;19920;-67
2022/07/23 16:50:26;;;;;;;;;;;11.60;96.70;;;;;;5090890;28;19919;-67
2022/07/23 16:52:52;;;;;;;;;;;11.60;96.60;;;;;;5088671;28;19920;-66
2022/07/23 16:55:19;;;;;;;;;;;11.60;96.60;;;;;;5088811;28;19916;-66
2022/07/23 16:57:45;;;;;;;;;;;11.60;96.60;;;;;;5091142;28;19977;-66
2022/07/23 17:00:12;;;;;;;;;;;11.60;96.50;;;;;;5090163;28;20289;-66
2022/07/23 17:02:39;;;;;;;;;;;11.60;96.50;;;;;;5091397;28;19912;-66
2022/07/23 17:05:07;;;;;;;;;;;11.50;96.50;;;;;;5091702;28;19918;-66
2022/07/23 17:07:34;;;;;;;;;;;11.50;96.60;;;;;;5089406;28;19994;-65
2022/07/23 17:10:02;;;;;;;;;;;11.50;96.60;;;;;;5090142;28;19962;-65
2022/07/23 17:12:28;;;;;;;;;;;11.50;96.60;;;;;;5092118;28;20366;-66
2022/07/23 17:14:55;;;;;;;;;;;11.50;96.50;;;;;;5091276;28;19970;-65
2022/07/23 17:17:22;;;;;;;;;;;11.50;96.50;;;;;;5091140;28;19927;-66
2022/07/23 17:19:48;;;;;;;;;;;11.50;96.50;;;;;;5087741;28;19912;-65
2022/07/23 17:22:15;;;;;;;;;;;11.40;96.40;;;;;;5088977;28;20290;-65
2022/07/23 17:24:41;;;;;;;;;;;11.40;96.50;;;;;;5089988;28;20003;-66
2022/07/23 17:27:08;;;;;;;;;;;11.40;96.50;;;;;;5090819;28;19942;-66
2022/07/23 17:29:34;;;;;;;;;;;11.40;96.60;;;;;;5091047;28;19951;-66
2022/07/23 17:32:01;;;;;;;;;;;11.40;96.50;;;;;;5089987;28;19969;-65